Time;durP1;ratioP1;P1;durP2;ratioP2;P2;SDS_P1;SDS_P2;PMS_P1;PMS_P2;Temp;Humidity;BMP_temperature;BMP_pressure;BME280_temperature;BME280_humidity;BME280_pressure;Samples;Min_cycle;Max_cycle;Signal;HPM_P1;HPM_P2
2024/01/15 00:02:17;;;;;;;7.70;0.88;;;0.30;99.90;;;;;;6107173;23;20018;-79
2024/01/15 00:04:42;;;;;;;21.77;3.85;;;0.30;99.90;;;;;;6131982;23;20478;-79
2024/01/15 00:07:09;;;;;;;16.75;3.75;;;0.30;99.90;;;;;;6108056;23;20014;-79
2024/01/15 00:09:35;;;;;;;16.20;3.15;;;0.30;99.90;;;;;;6127035;23;20024;-79
2024/01/15 00:12:01;;;;;;;20.25;3.58;;;0.30;99.90;;;;;;6102231;23;20345;-79
2024/01/15 00:14:27;;;;;;;19.25;3.60;;;0.30;99.90;;;;;;6102434;23;20014;-79
2024/01/15 00:16:54;;;;;;;18.30;3.70;;;0.40;99.90;;;;;;6102325;23;20014;-79
2024/01/15 00:19:21;;;;;;;12.15;1.33;;;0.40;99.90;;;;;;6126425;23;20006;-79
2024/01/15 00:21:47;;;;;;;17.65;3.20;;;0.50;99.90;;;;;;6126227;23;20024;-79
2024/01/15 00:24:13;;;;;;;17.17;2.63;;;0.50;99.90;;;;;;6126525;23;20014;-79
2024/01/15 00:26:39;;;;;;;5.13;1.10;;;0.60;99.90;;;;;;6103457;23;20077;-79
2024/01/15 00:29:06;;;;;;;19.02;3.50;;;0.60;99.90;;;;;;6073836;23;20014;-79
2024/01/15 00:31:32;;;;;;;4.32;1.27;;;0.70;99.90;;;;;;6097776;23;20396;-79
2024/01/15 00:33:58;;;;;;;16.27;3.65;;;0.90;99.90;;;;;;6097612;23;20021;-79
2024/01/15 00:36:23;;;;;;;9.00;1.67;;;1.00;99.90;;;;;;6097289;23;20014;-79
2024/01/15 00:38:49;;;;;;;9.20;1.40;;;1.10;99.90;;;;;;6097339;23;20006;-79
2024/01/15 00:41:15;;;;;;;3.70;1.17;;;1.00;99.90;;;;;;6097993;23;20015;-79
2024/01/15 00:43:40;;;;;;;17.63;3.30;;;1.00;99.90;;;;;;6074057;23;20021;-79
2024/01/15 00:46:06;;;;;;;20.88;4.07;;;1.00;99.90;;;;;;6098041;23;20046;-79
2024/01/15 00:48:32;;;;;;;13.10;3.20;;;0.90;99.90;;;;;;6074106;23;20015;-79
2024/01/15 00:50:57;;;;;;;18.33;3.95;;;0.90;99.90;;;;;;6097957;23;20022;-79
2024/01/15 00:53:23;;;;;;;8.35;1.00;;;0.80;99.90;;;;;;6073885;23;20530;-79
2024/01/15 00:55:49;;;;;;;7.40;0.90;;;0.70;99.90;;;;;;6074355;23;20078;-79
2024/01/15 00:58:15;;;;;;;8.88;1.48;;;0.60;99.90;;;;;;6073705;23;20014;-79
2024/01/15 01:00:41;;;;;;;5.50;1.05;;;0.60;99.90;;;;;;6098411;23;20018;-79
2024/01/15 01:03:07;;;;;;;9.18;1.48;;;0.60;99.90;;;;;;6074292;23;20038;-79
2024/01/15 01:05:35;;;;;;;13.55;3.15;;;0.60;99.90;;;;;;6097892;23;20066;-79
2024/01/15 01:08:01;;;;;;;14.30;3.00;;;0.60;99.90;;;;;;6073881;23;20338;-79
2024/01/15 01:10:27;;;;;;;17.35;3.30;;;0.60;99.90;;;;;;6098487;23;20046;-79
2024/01/15 01:12:53;;;;;;;16.45;3.25;;;0.60;99.90;;;;;;6098646;23;20022;-79
2024/01/15 01:15:18;;;;;;;21.77;3.78;;;0.50;99.90;;;;;;6074316;23;20010;-78
2024/01/15 01:17:44;;;;;;;19.13;3.83;;;0.50;99.90;;;;;;6075262;23;20096;-79
2024/01/15 01:20:10;;;;;;;18.55;3.25;;;0.50;99.90;;;;;;6098563;23;20371;-79
2024/01/15 01:22:36;;;;;;;10.02;1.50;;;0.50;99.90;;;;;;6074989;23;20017;-79
2024/01/15 01:25:02;;;;;;;14.00;3.53;;;0.50;99.90;;;;;;6081517;23;20397;-79
2024/01/15 01:27:28;;;;;;;5.63;0.90;;;0.50;99.90;;;;;;6133579;23;20068;-79
2024/01/15 01:29:53;;;;;;;16.75;3.42;;;0.60;99.90;;;;;;6108593;23;20010;-79
2024/01/15 01:32:19;;;;;;;8.85;1.75;;;0.70;99.90;;;;;;6133045;23;20014;-79
2024/01/15 01:34:44;;;;;;;8.18;1.33;;;0.80;99.90;;;;;;6133992;23;20023;-79
2024/01/15 01:37:14;;;;;;;17.42;3.33;;;0.90;99.90;;;;;;6133879;23;20006;-79
2024/01/15 01:39:43;;;;;;;19.85;3.22;;;1.00;99.90;;;;;;6109064;23;20014;-79
2024/01/15 01:42:09;;;;;;;7.53;1.58;;;1.10;99.90;;;;;;6133143;23;20069;-79
2024/01/15 01:44:35;;;;;;;17.95;3.55;;;1.10;99.90;;;;;;6133807;23;20022;-79
2024/01/15 01:47:01;;;;;;;8.70;1.25;;;1.20;99.90;;;;;;6133891;23;20017;-79
2024/01/15 01:49:28;;;;;;;17.08;3.85;;;1.30;99.90;;;;;;6109863;23;20013;-79
2024/01/15 01:51:57;;;;;;;13.52;2.42;;;1.30;99.90;;;;;;6108494;23;20009;-79
2024/01/15 01:54:24;;;;;;;13.48;2.65;;;1.40;99.90;;;;;;6132491;23;20010;-79
2024/01/15 01:56:51;;;;;;;1.40;0.50;;;1.40;99.90;;;;;;6131439;23;20009;-79
2024/01/15 01:59:17;;;;;;;7.53;2.08;;;1.40;99.90;;;;;;6132477;23;20379;-78
2024/01/15 02:01:44;;;;;;;8.75;1.55;;;1.40;99.90;;;;;;6109328;23;20072;-79
2024/01/15 02:04:10;;;;;;;2.33;0.50;;;1.40;99.90;;;;;;6133332;23;20010;-79
2024/01/15 02:06:36;;;;;;;7.97;1.45;;;1.40;99.90;;;;;;6108709;23;20069;-79
2024/01/15 02:09:01;;;;;;;2.42;0.80;;;1.30;99.90;;;;;;6133050;23;20017;-78
2024/01/15 02:11:27;;;;;;;6.50;1.50;;;1.30;99.90;;;;;;6108855;23;20024;-78
2024/01/15 02:13:52;;;;;;;7.20;1.98;;;1.30;99.90;;;;;;6133232;23;20473;-78
2024/01/15 02:16:18;;;;;;;11.38;1.80;;;1.30;99.90;;;;;;6129685;23;20009;-78
2024/01/15 02:18:45;;;;;;;10.60;1.83;;;1.30;99.90;;;;;;6104755;23;20361;-78
2024/01/15 02:21:11;;;;;;;10.13;1.80;;;1.20;99.90;;;;;;6129436;23;20020;-78
2024/01/15 02:23:37;;;;;;;10.25;1.80;;;1.20;99.90;;;;;;6129653;23;20017;-78
2024/01/15 02:26:04;;;;;;;9.60;1.80;;;1.30;99.90;;;;;;6129301;23;20009;-78
2024/01/15 02:28:30;;;;;;;7.72;1.27;;;1.20;99.90;;;;;;6104856;23;20014;-78
2024/01/15 02:30:56;;;;;;;8.52;1.90;;;1.20;99.90;;;;;;6104533;23;20116;-78
2024/01/15 02:33:22;;;;;;;11.07;2.08;;;1.30;99.90;;;;;;6128773;23;20014;-78
2024/01/15 02:35:50;;;;;;;4.28;0.40;;;1.30;99.90;;;;;;6128473;23;20009;-78
2024/01/15 02:38:16;;;;;;;8.32;1.50;;;1.30;99.90;;;;;;6128535;23;20032;-78
2024/01/15 02:40:43;;;;;;;6.80;1.63;;;1.20;99.90;;;;;;6128821;23;20148;-78
2024/01/15 02:43:08;;;;;;;4.38;0.70;;;1.20;99.90;;;;;;6104352;23;20024;-78
2024/01/15 02:45:34;;;;;;;4.88;0.73;;;1.20;99.90;;;;;;6104192;23;20013;-78
2024/01/15 02:48:00;;;;;;;6.82;1.70;;;1.10;99.90;;;;;;6104115;23;20354;-78
2024/01/15 02:50:26;;;;;;;8.82;2.10;;;1.10;99.90;;;;;;6128855;23;20017;-78
2024/01/15 02:52:51;;;;;;;8.82;2.03;;;1.10;99.90;;;;;;6103898;23;20033;-78
2024/01/15 02:55:17;;;;;;;9.55;1.80;;;1.00;99.90;;;;;;6128459;23;20013;-78
2024/01/15 02:57:43;;;;;;;10.00;1.90;;;1.00;99.90;;;;;;6128798;23;20032;-78
2024/01/15 03:00:09;;;;;;;2.10;0.47;;;1.00;99.90;;;;;;6128535;23;20450;-78
2024/01/15 03:02:43;;;;;;;11.13;1.50;;;1.00;99.90;;;;;;6128353;23;20017;-78
2024/01/15 03:05:09;;;;;;;13.73;2.92;;;0.90;99.90;;;;;;6128008;23;20014;-78
2024/01/15 03:07:35;;;;;;;3.35;0.82;;;0.90;99.90;;;;;;6103695;23;20017;-78
2024/01/15 03:10:00;;;;;;;4.22;0.88;;;0.90;99.90;;;;;;6103724;23;20014;-77
2024/01/15 03:12:26;;;;;;;14.57;3.22;;;0.90;99.90;;;;;;6128382;23;20036;-78
2024/01/15 03:14:51;;;;;;;6.05;0.80;;;0.90;99.90;;;;;;6128309;23;20079;-78
2024/01/15 03:17:17;;;;;;;13.98;3.10;;;1.00;99.90;;;;;;6128934;23;20448;-78
2024/01/15 03:19:42;;;;;;;14.82;2.83;;;1.00;99.90;;;;;;6129020;23;20010;-78
2024/01/15 03:22:08;;;;;;;14.23;2.65;;;1.10;99.90;;;;;;6129153;23;20070;-78
2024/01/15 03:24:35;;;;;;;12.45;2.53;;;1.10;99.90;;;;;;6129554;23;20017;-78
2024/01/15 03:27:00;;;;;;;17.90;3.70;;;1.10;99.90;;;;;;6128177;23;20014;-76
2024/01/15 03:29:26;;;;;;;16.58;2.90;;;1.20;99.90;;;;;;6127894;23;20092;-76
2024/01/15 03:31:52;;;;;;;14.88;2.75;;;1.20;99.90;;;;;;6103342;23;20010;-76
2024/01/15 03:34:17;;;;;;;15.00;2.90;;;1.20;99.90;;;;;;6103408;23;20469;-76
2024/01/15 03:36:43;;;;;;;15.70;3.10;;;1.20;99.90;;;;;;6103497;23;20032;-76
2024/01/15 03:39:08;;;;;;;16.17;3.08;;;1.20;99.90;;;;;;6127894;23;20020;-76
2024/01/15 03:41:34;;;;;;;18.05;3.42;;;1.20;99.90;;;;;;6103546;23;20468;-76
2024/01/15 03:44:00;;;;;;;15.93;3.22;;;1.20;99.90;;;;;;6127877;23;20347;-76
2024/01/15 03:46:25;;;;;;;18.45;4.10;;;1.20;99.90;;;;;;6103505;23;20092;-76
2024/01/15 03:48:51;;;;;;;18.80;3.55;;;1.20;99.90;;;;;;6127874;23;20013;-75
2024/01/15 03:51:20;;;;;;;21.80;4.03;;;1.30;99.90;;;;;;6127498;23;20013;-76
2024/01/15 03:53:46;;;;;;;8.52;1.35;;;1.30;99.90;;;;;;6103281;23;20093;-76
2024/01/15 03:56:12;;;;;;;22.80;4.72;;;1.30;99.90;;;;;;6127613;23;20037;-76
2024/01/15 03:58:37;;;;;;;16.90;3.22;;;1.30;99.90;;;;;;6127822;23;20045;-76
2024/01/15 04:01:03;;;;;;;4.78;1.30;;;1.30;99.90;;;;;;6127641;23;20088;-76
2024/01/15 04:03:28;;;;;;;20.23;4.05;;;1.30;99.90;;;;;;6127651;23;20046;-76
2024/01/15 04:05:54;;;;;;;17.80;3.25;;;1.20;99.90;;;;;;6127503;23;20060;-76
2024/01/15 04:08:19;;;;;;;8.55;1.23;;;1.30;99.90;;;;;;6127738;23;20014;-76
2024/01/15 04:10:45;;;;;;;19.85;3.47;;;1.20;99.90;;;;;;6127709;23;20064;-76
2024/01/15 04:13:11;;;;;;;16.45;3.10;;;1.10;99.90;;;;;;6127511;23;20017;-76
2024/01/15 04:15:37;;;;;;;19.25;3.40;;;1.10;99.90;;;;;;6103499;23;20013;-76
2024/01/15 04:18:03;;;;;;;21.90;4.32;;;1.10;99.90;;;;;;6152306;23;20052;-76
2024/01/15 04:20:29;;;;;;;18.20;3.33;;;1.10;99.90;;;;;;6127340;23;20014;-76
2024/01/15 04:22:54;;;;;;;19.88;4.00;;;1.10;99.90;;;;;;6126759;23;20409;-76
2024/01/15 04:25:20;;;;;;;17.35;3.13;;;1.10;99.90;;;;;;6127453;23;20018;-76
2024/01/15 04:27:46;;;;;;;9.00;0.95;;;1.10;99.90;;;;;;6127656;23;20013;-76
2024/01/15 04:30:11;;;;;;;14.63;2.40;;;1.10;99.90;;;;;;6127544;23;20057;-76
2024/01/15 04:32:37;;;;;;;10.30;2.30;;;1.10;99.90;;;;;;6127491;23;20013;-76
2024/01/15 04:35:03;;;;;;;9.45;2.30;;;1.10;99.90;;;;;;6103175;23;20144;-76
2024/01/15 04:37:28;;;;;;;9.45;1.73;;;1.10;99.90;;;;;;6127452;23;20454;-76
2024/01/15 04:39:55;;;;;;;10.50;2.00;;;1.10;99.90;;;;;;6127605;23;20014;-76
2024/01/15 04:42:21;;;;;;;11.13;2.50;;;1.10;99.90;;;;;;6103923;23;20462;-76
2024/01/15 04:44:47;;;;;;;11.90;2.35;;;1.20;99.90;;;;;;6129241;23;20031;-76
2024/01/15 04:47:12;;;;;;;1.40;0.52;;;1.20;99.90;;;;;;6104105;23;20045;-76
2024/01/15 04:49:38;;;;;;;14.10;2.35;;;1.20;99.90;;;;;;6129194;23;20013;-76
2024/01/15 04:52:04;;;;;;;14.23;2.08;;;1.20;99.90;;;;;;6129328;23;20147;-76
2024/01/15 04:54:29;;;;;;;11.05;2.10;;;1.20;99.90;;;;;;6129274;23;20091;-76
2024/01/15 04:56:55;;;;;;;10.50;2.03;;;1.10;99.90;;;;;;6104991;23;20012;-76
2024/01/15 04:59:20;;;;;;;5.82;0.80;;;1.10;99.90;;;;;;6104905;23;20040;-77
2024/01/15 05:01:47;;;;;;;11.98;2.50;;;1.00;99.90;;;;;;6105021;23;20109;-76
2024/01/15 05:04:12;;;;;;;17.05;4.07;;;0.90;99.90;;;;;;6104817;23;20060;-76
2024/01/15 05:06:38;;;;;;;3.60;0.98;;;0.90;99.90;;;;;;6104876;23;20014;-76
2024/01/15 05:09:04;;;;;;;17.05;3.22;;;0.80;99.90;;;;;;6104975;23;20536;-76
2024/01/15 05:11:29;;;;;;;16.02;2.47;;;0.70;99.90;;;;;;6153752;23;20422;-77
2024/01/15 05:13:55;;;;;;;15.43;2.20;;;0.70;99.90;;;;;;6129952;23;20010;-78
2024/01/15 05:16:21;;;;;;;4.72;1.15;;;0.70;99.90;;;;;;6132146;23;20017;-79
2024/01/15 05:18:46;;;;;;;16.58;2.67;;;0.60;99.90;;;;;;6132403;23;20064;-78
2024/01/15 05:21:12;;;;;;;19.90;2.42;;;0.60;99.90;;;;;;6132211;23;20014;-79
2024/01/15 05:23:38;;;;;;;13.30;1.08;;;0.60;99.90;;;;;;6132571;23;20460;-79
2024/01/15 05:26:03;;;;;;;18.85;3.33;;;0.60;99.90;;;;;;6130109;23;20022;-74
2024/01/15 05:28:29;;;;;;;21.27;2.95;;;0.50;99.90;;;;;;6128512;23;20016;-74
2024/01/15 05:30:55;;;;;;;5.18;0.93;;;0.50;99.90;;;;;;6128682;23;20092;-74
2024/01/15 05:33:22;;;;;;;22.08;3.30;;;0.50;99.90;;;;;;6128512;23;20014;-73
2024/01/15 05:35:49;;;;;;;12.85;0.88;;;0.60;99.90;;;;;;6095200;23;20042;-75
2024/01/15 05:38:14;;;;;;;19.33;3.88;;;0.50;99.90;;;;;;6075443;23;20021;-74
2024/01/15 05:40:40;;;;;;;12.02;1.52;;;0.50;99.90;;;;;;6075569;23;20006;-74
2024/01/15 05:43:05;;;;;;;16.92;3.33;;;0.60;99.90;;;;;;6075413;23;20049;-74
2024/01/15 05:45:31;;;;;;;22.70;2.72;;;0.60;99.90;;;;;;6075881;23;20024;-74
2024/01/15 05:47:57;;;;;;;28.58;3.50;;;0.70;99.90;;;;;;6099043;23;20013;-73
2024/01/15 05:50:22;;;;;;;18.83;3.25;;;0.70;99.90;;;;;;6074782;23;20010;-74
2024/01/15 05:52:48;;;;;;;19.17;2.55;;;0.70;99.90;;;;;;6075173;23;20469;-75
2024/01/15 05:55:14;;;;;;;17.27;2.90;;;0.70;99.90;;;;;;6075782;23;20013;-74
2024/01/15 05:57:39;;;;;;;21.95;3.10;;;0.70;99.90;;;;;;6099422;23;20342;-74
2024/01/15 06:00:06;;;;;;;12.55;2.33;;;0.70;99.90;;;;;;6075499;23;20064;-74
2024/01/15 06:02:31;;;;;;;17.25;2.88;;;0.60;99.90;;;;;;6074736;23;20018;-73
2024/01/15 06:04:57;;;;;;;17.30;2.45;;;0.60;99.90;;;;;;6074621;23;20132;-74
2024/01/15 06:07:23;;;;;;;11.32;1.50;;;0.60;99.90;;;;;;6074742;23;20025;-74
2024/01/15 06:09:48;;;;;;;6.43;0.70;;;0.60;99.90;;;;;;6099237;23;20020;-74
2024/01/15 06:12:14;;;;;;;6.53;1.38;;;0.50;99.90;;;;;;6074686;23;20014;-72
2024/01/15 06:14:41;;;;;;;7.43;0.60;;;0.50;99.90;;;;;;6074103;23;20014;-76
2024/01/15 06:17:07;;;;;;;6.50;0.90;;;0.50;99.90;;;;;;6075011;23;20206;-75
2024/01/15 06:19:35;;;;;;;13.68;2.40;;;0.50;99.90;;;;;;6074929;23;20014;-76
2024/01/15 06:22:00;;;;;;;13.80;2.45;;;0.60;99.90;;;;;;6074054;23;20116;-76
2024/01/15 06:24:26;;;;;;;7.25;1.08;;;0.60;99.90;;;;;;6074835;23;20017;-76
2024/01/15 06:26:52;;;;;;;13.02;2.38;;;0.70;99.90;;;;;;6115555;23;20018;-76
2024/01/15 06:29:18;;;;;;;8.73;1.13;;;0.60;99.90;;;;;;6123138;23;20014;-76
2024/01/15 06:31:44;;;;;;;14.95;2.63;;;0.60;99.90;;;;;;6099043;23;20018;-75
2024/01/15 06:34:09;;;;;;;6.53;0.90;;;0.60;99.90;;;;;;6122413;23;20017;-73
2024/01/15 06:36:35;;;;;;;17.60;2.90;;;0.60;99.90;;;;;;6123226;23;20070;-73
2024/01/15 06:39:00;;;;;;;6.63;1.15;;;0.60;99.90;;;;;;6098804;23;20469;-74
2024/01/15 06:41:26;;;;;;;21.60;3.20;;;0.60;99.90;;;;;;6098302;23;20044;-74
2024/01/15 06:43:52;;;;;;;18.70;4.13;;;0.60;99.90;;;;;;6122834;23;20451;-74
2024/01/15 06:46:23;;;;;;;7.13;0.90;;;0.60;99.90;;;;;;6123202;23;20010;-74
2024/01/15 06:48:49;;;;;;;8.30;0.80;;;0.60;99.90;;;;;;6098143;23;20356;-74
2024/01/15 06:51:16;;;;;;;6.65;1.92;;;0.50;99.90;;;;;;6123151;23;20029;-74
2024/01/15 06:53:42;;;;;;;16.33;2.72;;;0.50;99.90;;;;;;6123028;23;20025;-73
2024/01/15 06:56:08;;;;;;;14.90;2.97;;;0.50;99.90;;;;;;6098239;23;20006;-73
2024/01/15 06:58:33;;;;;;;9.88;1.33;;;0.40;99.90;;;;;;6098299;23;20358;-73
2024/01/15 07:00:59;;;;;;;9.60;1.80;;;0.40;99.90;;;;;;6098616;23;20041;-72
2024/01/15 07:03:25;;;;;;;14.70;2.78;;;0.30;99.90;;;;;;6122214;23;20014;-74
2024/01/15 07:05:51;;;;;;;5.13;0.88;;;0.30;99.90;;;;;;6097930;23;20014;-75
2024/01/15 07:08:16;;;;;;;5.50;1.08;;;0.30;99.90;;;;;;6098765;23;20010;-75
2024/01/15 07:10:42;;;;;;;16.73;3.15;;;0.30;99.90;;;;;;6098564;23;20040;-74
2024/01/15 07:13:08;;;;;;;18.20;2.92;;;0.40;99.90;;;;;;6122554;23;20014;-74
2024/01/15 07:15:34;;;;;;;7.57;1.75;;;0.30;99.90;;;;;;6098417;23;20024;-74
2024/01/15 07:18:00;;;;;;;18.77;3.42;;;0.30;99.90;;;;;;6098780;23;20045;-74
2024/01/15 07:20:25;;;;;;;20.05;4.13;;;0.30;99.90;;;;;;6123313;23;20018;-74
2024/01/15 07:22:51;;;;;;;4.53;0.90;;;0.30;99.90;;;;;;6098390;23;20018;-73
2024/01/15 07:25:17;;;;;;;6.95;0.90;;;0.40;99.90;;;;;;6120143;23;20450;-75
2024/01/15 07:27:44;;;;;;;20.55;3.65;;;0.30;99.90;;;;;;6046234;23;20042;-75
2024/01/15 07:30:11;;;;;;;4.40;0.93;;;0.50;99.90;;;;;;6045474;23;20477;-73
2024/01/15 07:32:37;;;;;;;22.02;3.85;;;0.40;99.90;;;;;;6044718;23;20038;-74
2024/01/15 07:35:02;;;;;;;10.77;0.95;;;0.40;99.90;;;;;;6068897;23;20007;-73
2024/01/15 07:37:28;;;;;;;19.27;3.35;;;0.40;99.90;;;;;;6069727;23;20069;-73
2024/01/15 07:39:54;;;;;;;10.63;1.73;;;0.40;99.90;;;;;;6069517;23;20065;-73
2024/01/15 07:42:19;;;;;;;6.40;1.00;;;0.40;99.90;;;;;;6045758;23;20014;-73
2024/01/15 07:44:45;;;;;;;5.80;0.65;;;0.30;99.90;;;;;;6045619;23;20023;-73
2024/01/15 07:47:10;;;;;;;20.25;3.28;;;0.30;99.90;;;;;;6045762;23;20026;-73
2024/01/15 07:49:36;;;;;;;19.70;3.22;;;0.30;99.90;;;;;;6045811;23;20015;-73
2024/01/15 07:52:02;;;;;;;9.50;1.17;;;0.30;99.90;;;;;;6045721;23;20018;-73
2024/01/15 07:54:28;;;;;;;9.38;1.15;;;0.20;99.90;;;;;;6045527;23;20010;-73
2024/01/15 07:56:58;;;;;;;7.57;1.25;;;0.20;99.90;;;;;;6070256;23;20089;-73
2024/01/15 07:59:24;;;;;;;17.10;1.48;;;0.30;99.90;;;;;;6045862;23;20015;-74
2024/01/15 08:01:51;;;;;;;23.27;3.47;;;0.30;99.90;;;;;;6069864;23;20101;-75
2024/01/15 08:04:17;;;;;;;24.15;4.05;;;0.20;99.90;;;;;;6045915;23;20011;-73
2024/01/15 08:06:42;;;;;;;5.93;0.85;;;0.30;99.90;;;;;;6045784;23;20017;-74
2024/01/15 08:09:08;;;;;;;17.70;2.90;;;0.30;99.90;;;;;;6046307;23;20010;-72
2024/01/15 08:11:34;;;;;;;9.70;1.27;;;0.30;99.90;;;;;;6069565;23;20369;-74
2024/01/15 08:14:00;;;;;;;6.15;1.23;;;0.40;99.90;;;;;;6045527;23;20015;-73
2024/01/15 08:16:27;;;;;;;23.42;4.35;;;0.40;99.90;;;;;;6069394;23;20006;-73
2024/01/15 08:18:53;;;;;;;17.92;3.65;;;0.40;99.90;;;;;;6047341;23;20093;-73
2024/01/15 08:21:19;;;;;;;6.72;1.23;;;0.40;99.90;;;;;;6071528;23;20049;-73
2024/01/15 08:23:44;;;;;;;18.50;3.42;;;0.50;99.90;;;;;;6047537;23;20022;-73
2024/01/15 08:26:10;;;;;;;9.23;1.02;;;0.50;99.90;;;;;;6092315;23;20029;-73
2024/01/15 08:28:36;;;;;;;18.52;3.30;;;0.50;99.90;;;;;;6149177;23;20014;-73
2024/01/15 08:31:02;;;;;;;7.13;1.02;;;0.50;99.90;;;;;;6100081;23;20053;-73
2024/01/15 08:33:28;;;;;;;6.75;1.17;;;0.50;99.90;;;;;;6124500;23;20057;-73
2024/01/15 08:35:54;;;;;;;18.65;3.05;;;0.50;99.90;;;;;;6124442;23;20013;-73
2024/01/15 08:38:20;;;;;;;11.20;2.25;;;0.50;99.90;;;;;;6124455;23;20021;-73
2024/01/15 08:40:46;;;;;;;13.30;1.40;;;0.60;99.90;;;;;;6124727;23;20006;-73
2024/01/15 08:43:11;;;;;;;13.10;3.17;;;0.60;99.90;;;;;;6099861;23;20018;-73
2024/01/15 08:45:37;;;;;;;11.63;2.78;;;0.70;99.90;;;;;;6124311;23;20093;-73
2024/01/15 08:48:03;;;;;;;14.85;3.10;;;0.90;99.90;;;;;;6124371;23;20014;-73
2024/01/15 08:50:29;;;;;;;13.93;3.30;;;0.90;99.90;;;;;;6124369;23;20406;-73
2024/01/15 08:52:55;;;;;;;11.93;0.95;;;0.90;99.90;;;;;;6099720;23;20345;-73
2024/01/15 08:55:22;;;;;;;16.30;2.83;;;0.90;99.90;;;;;;6124241;23;20010;-73
2024/01/15 08:57:48;;;;;;;9.95;1.67;;;0.90;99.90;;;;;;6124310;23;20037;-73
2024/01/15 09:00:14;;;;;;;16.13;2.65;;;0.80;99.90;;;;;;6124303;23;20014;-73
2024/01/15 09:02:40;;;;;;;12.55;2.50;;;0.80;99.90;;;;;;6124196;23;20451;-73
2024/01/15 09:05:06;;;;;;;4.57;1.27;;;0.70;99.90;;;;;;6099892;23;20032;-73
2024/01/15 09:07:32;;;;;;;17.90;2.88;;;0.70;99.90;;;;;;6124570;23;20013;-73
2024/01/15 09:09:59;;;;;;;8.88;1.42;;;0.70;99.90;;;;;;6099845;23;20056;-73
2024/01/15 09:12:25;;;;;;;16.02;2.88;;;0.70;99.90;;;;;;6124076;23;20062;-73
2024/01/15 09:14:51;;;;;;;18.25;3.05;;;0.70;99.90;;;;;;6099768;23;20334;-73
2024/01/15 09:17:17;;;;;;;6.93;1.10;;;0.80;99.90;;;;;;6124144;23;20014;-73
2024/01/15 09:19:44;;;;;;;10.45;1.13;;;0.80;99.90;;;;;;6099676;23;20032;-73
2024/01/15 09:22:09;;;;;;;20.10;3.85;;;0.90;99.90;;;;;;6124131;23;20092;-73
2024/01/15 09:24:36;;;;;;;18.40;3.60;;;0.90;99.90;;;;;;6124210;23;20351;-73
2024/01/15 09:27:02;;;;;;;21.33;3.90;;;0.90;99.90;;;;;;6099517;23;20051;-73
2024/01/15 09:29:28;;;;;;;17.58;4.30;;;0.90;99.90;;;;;;6123706;23;20056;-73
2024/01/15 09:31:54;;;;;;;16.92;3.85;;;1.00;99.90;;;;;;6099574;23;20017;-73
2024/01/15 09:34:19;;;;;;;19.30;3.45;;;1.00;99.90;;;;;;6099334;23;20028;-73
2024/01/15 09:36:45;;;;;;;17.67;3.15;;;1.10;99.90;;;;;;6124263;23;20016;-73
2024/01/15 09:39:11;;;;;;;13.60;2.80;;;1.20;99.90;;;;;;6123934;23;20014;-73
2024/01/15 09:41:40;;;;;;;14.27;2.65;;;1.30;99.90;;;;;;6123904;23;20493;-73
2024/01/15 09:44:07;;;;;;;14.52;3.17;;;1.40;99.90;;;;;;6099297;23;20057;-73
2024/01/15 09:46:34;;;;;;;14.00;3.00;;;1.40;99.90;;;;;;6123791;23;20021;-73
2024/01/15 09:49:01;;;;;;;4.43;0.82;;;1.40;99.90;;;;;;6148878;23;20064;-73
2024/01/15 09:51:30;;;;;;;12.25;2.30;;;1.40;99.90;;;;;;6124336;23;20041;-73
2024/01/15 09:53:57;;;;;;;4.47;1.08;;;1.50;99.90;;;;;;6148048;23;20014;-73
2024/01/15 09:56:23;;;;;;;9.98;1.95;;;1.50;99.90;;;;;;6099254;23;20009;-72
2024/01/15 09:58:51;;;;;;;7.97;1.80;;;1.50;99.90;;;;;;6123883;23;20341;-73
2024/01/15 10:01:17;;;;;;;7.75;1.98;;;1.40;99.90;;;;;;6123853;23;20009;-73
2024/01/15 10:03:43;;;;;;;5.30;1.17;;;1.30;99.90;;;;;;6099460;23;20398;-73
2024/01/15 10:06:11;;;;;;;4.90;1.17;;;1.20;99.90;;;;;;6123698;23;20018;-73
2024/01/15 10:08:37;;;;;;;5.97;1.52;;;1.20;99.90;;;;;;6123629;23;20010;-73
2024/01/15 10:11:04;;;;;;;7.63;1.65;;;1.10;99.90;;;;;;6099554;23;20114;-73
2024/01/15 10:13:30;;;;;;;6.10;1.60;;;1.20;99.90;;;;;;6123251;23;20017;-73
2024/01/15 10:15:56;;;;;;;5.25;1.50;;;1.20;99.90;;;;;;6123455;23;20482;-73
2024/01/15 10:18:21;;;;;;;6.95;1.38;;;1.30;99.90;;;;;;6123606;23;20022;-73
2024/01/15 10:20:47;;;;;;;6.60;1.13;;;1.30;99.90;;;;;;6123469;23;20010;-73
2024/01/15 10:23:15;;;;;;;7.22;1.48;;;1.40;99.90;;;;;;6123149;23;20018;-73
2024/01/15 10:25:42;;;;;;;5.32;1.33;;;1.50;99.90;;;;;;6123500;23;20037;-73
2024/01/15 10:28:08;;;;;;;7.68;1.60;;;1.60;99.90;;;;;;6123445;23;20025;-73
2024/01/15 10:30:34;;;;;;;9.55;1.80;;;1.60;99.90;;;;;;6123498;23;20010;-73
2024/01/15 10:33:01;;;;;;;7.75;1.88;;;1.60;99.90;;;;;;6123502;23;20014;-73
2024/01/15 10:35:32;;;;;;;9.10;1.70;;;1.80;99.90;;;;;;6123602;23;20501;-73
2024/01/15 10:38:02;;;;;;;11.23;2.33;;;1.80;99.90;;;;;;6099221;23;20010;-73
2024/01/15 10:40:28;;;;;;;10.52;2.78;;;1.80;99.90;;;;;;6122962;23;20010;-73
2024/01/15 10:42:54;;;;;;;11.48;2.65;;;1.80;99.90;;;;;;6123178;23;20455;-73
2024/01/15 10:45:20;;;;;;;9.43;1.90;;;1.80;99.90;;;;;;6123115;23;20064;-73
2024/01/15 10:47:46;;;;;;;8.02;1.00;;;1.70;99.90;;;;;;6123672;23;20020;-73
2024/01/15 10:50:12;;;;;;;9.23;1.90;;;1.70;99.90;;;;;;6123614;23;20014;-73
2024/01/15 10:52:43;;;;;;;12.55;2.20;;;1.70;99.90;;;;;;6123461;23;20411;-72
2024/01/15 10:55:09;;;;;;;10.18;2.50;;;1.90;99.90;;;;;;6098973;23;20226;-73
2024/01/15 10:57:36;;;;;;;10.43;2.30;;;2.10;99.90;;;;;;6123307;23;20020;-73
2024/01/15 11:00:05;;;;;;;10.80;2.00;;;2.30;99.90;;;;;;6123667;23;20073;-73
2024/01/15 11:02:34;;;;;;;12.02;2.13;;;2.40;99.90;;;;;;6123191;23;20350;-73
2024/01/15 11:05:00;;;;;;;7.13;2.03;;;2.50;99.90;;;;;;6122980;23;20465;-73
2024/01/15 11:07:26;;;;;;;7.88;1.70;;;2.50;99.90;;;;;;6122941;23;20041;-73
2024/01/15 11:09:52;;;;;;;6.25;1.55;;;2.50;99.90;;;;;;6123141;23;20068;-73
2024/01/15 11:12:19;;;;;;;3.65;1.30;;;2.30;99.90;;;;;;6123069;23;20324;-73
2024/01/15 11:14:51;;;;;;;4.32;1.20;;;2.10;99.90;;;;;;6098503;23;20085;-73
2024/01/15 11:17:18;;;;;;;0.68;0.30;;;1.90;99.90;;;;;;6123189;23;20010;-73
2024/01/15 11:19:45;;;;;;;5.95;1.00;;;1.70;99.90;;;;;;6123156;23;20345;-73
2024/01/15 11:22:30;;;;;;;3.22;0.75;;;1.50;99.90;;;;;;6123090;23;20052;-73
2024/01/15 11:27:51;;;;;;;3.08;0.80;;;1.30;99.90;;;;;;6153168;23;20076;-76
2024/01/15 11:30:17;;;;;;;4.15;1.33;;;1.20;99.90;;;;;;6152620;23;20065;-76
2024/01/15 11:32:42;;;;;;;4.63;1.08;;;1.30;99.90;;;;;;6127843;23;20014;-76
2024/01/15 11:35:13;;;;;;;7.80;1.17;;;1.30;99.90;;;;;;6152255;23;20012;-76
2024/01/15 11:37:51;;;;;;;5.20;1.27;;;1.30;99.90;;;;;;6123803;23;20061;-76
2024/01/15 11:40:37;;;;;;;6.00;1.38;;;1.30;99.90;;;;;;6123100;23;20481;-77
2024/01/15 11:43:04;;;;;;;5.63;1.20;;;1.40;99.90;;;;;;6122847;23;20451;-76
2024/01/15 11:45:30;;;;;;;5.97;1.25;;;1.40;99.90;;;;;;6122992;23;20045;-76
2024/01/15 11:48:17;;;;;;;6.10;1.40;;;1.50;99.90;;;;;;6122910;23;20017;-76
2024/01/15 11:50:49;;;;;;;5.05;1.70;;;1.50;99.90;;;;;;6123016;23;20045;-76
2024/01/15 11:53:36;;;;;;;9.73;1.90;;;1.60;99.90;;;;;;6100285;23;20513;-77
2024/01/15 11:56:02;;;;;;;7.95;1.80;;;1.70;99.90;;;;;;6100605;23;20024;-76
2024/01/15 11:58:29;;;;;;;14.18;2.47;;;1.80;99.90;;;;;;6125138;23;20010;-76
2024/01/15 12:00:55;;;;;;;11.35;2.35;;;1.90;99.90;;;;;;6124909;23;20042;-76
2024/01/15 12:03:24;;;;;;;13.55;2.85;;;2.00;99.90;;;;;;6124681;23;20025;-76
2024/01/15 12:05:52;;;;;;;11.10;2.45;;;2.30;99.90;;;;;;6124713;23;20141;-76
2024/01/15 12:08:25;;;;;;;9.48;2.58;;;2.60;99.90;;;;;;6124861;23;20014;-76
2024/01/15 12:10:51;;;;;;;12.80;2.75;;;2.80;99.90;;;;;;6124926;23;20017;-76
2024/01/15 12:13:17;;;;;;;14.27;2.80;;;3.00;99.90;;;;;;6124529;23;20014;-76
2024/01/15 12:15:44;;;;;;;10.35;2.50;;;3.40;99.90;;;;;;6124831;23;20009;-76
2024/01/15 12:18:18;;;;;;;12.73;2.63;;;3.60;99.90;;;;;;6124863;23;20014;-76
2024/01/15 12:20:46;;;;;;;7.53;1.92;;;3.40;99.90;;;;;;6100416;23;20014;-77
2024/01/15 12:23:13;;;;;;;5.55;1.48;;;3.00;99.90;;;;;;6124527;23;20014;-76
2024/01/15 12:25:39;;;;;;;6.00;1.42;;;2.60;99.90;;;;;;6124587;23;20021;-76
2024/01/15 12:28:05;;;;;;;10.43;1.58;;;2.30;99.90;;;;;;6124740;23;20065;-76
2024/01/15 12:30:32;;;;;;;7.50;1.77;;;2.00;99.90;;;;;;6124623;23;20020;-76
2024/01/15 12:33:00;;;;;;;7.38;1.70;;;1.80;99.90;;;;;;6124289;23;20014;-76
2024/01/15 12:35:26;;;;;;;7.50;1.50;;;1.70;99.90;;;;;;6124482;23;20165;-76
2024/01/15 12:37:51;;;;;;;7.55;1.60;;;1.60;99.90;;;;;;6100100;23;20010;-76
2024/01/15 12:40:21;;;;;;;10.65;1.70;;;1.60;99.90;;;;;;6124608;23;20521;-76
2024/01/15 12:42:47;;;;;;;8.10;1.83;;;1.50;99.90;;;;;;6124504;23;20021;-76
2024/01/15 12:45:13;;;;;;;7.38;1.90;;;1.40;99.90;;;;;;6124219;23;20354;-76
2024/01/15 12:47:40;;;;;;;8.38;1.83;;;1.30;99.90;;;;;;6099972;23;20065;-76
2024/01/15 12:50:12;;;;;;;6.07;1.50;;;1.40;99.90;;;;;;6100038;23;20020;-76